TUCO2: Canadian River nr Tuttle 7ENE (Mustang)

                                SHEF ID:       TUCO2     Canadian River near Mustang, OK
STATION TYPE:
Regulating: Stage = 22.00, Flow = 9519

STAGE RIV-FLOW BAT-LOAD
ft cfs volt
Ccp-Rev Ccp-Rev Ccp-Rev
(America/Chicago)
08/29 00:00 12.56 566 12.57
08/29 01:00 12.52 554 12.57
08/29 02:00 12.49 545 12.49
08/29 03:00 12.47 540 12.49
08/29 04:00 12.46 537 12.49
08/29 05:00 12.45 534 12.49
08/29 06:00 12.45 534 12.49
08/29 07:00 12.42 525 12.49
08/29 08:00 12.37 511 12.41
08/29 09:00 12.35 505 12.41
08/29 10:00 12.35 505 12.49
08/29 11:00 12.30 491 12.49
08/29 12:00 12.26 480 12.57
08/29 13:00 12.24 474 12.65
08/29 14:00 12.23 471 12.81
08/29 15:00 12.20 463 12.65
08/29 16:00 12.17 455 12.65
08/29 17:00 12.16 452 12.57
08/29 18:00 12.14 447 12.57
08/29 19:00 12.13 444 12.49
08/29 20:00 12.13 444 12.49
08/29 21:00 12.11 439 12.49
08/29 22:00 12.10 436 12.49
08/29 23:00 12.10 436 12.41
Data processed at Sat 30Aug2025 04:23 GMT

Parsing this webpage?

Checkout our new Data API! CWMSDataAPI (CDA)

Timeseries IDs (TSIDs)

TSIDs used from left to right in the data table
TUTL.Stage.Inst.1Hour.0.Ccp-Rev
TUTL.Flow.Inst.1Hour.0.Ccp-Rev
TUTL.Volt-Battery Load.Inst.1Hour.0.Ccp-Rev

                            

All information presented herein is the property of the government of the United States of America and may be revised or deleted at any time without prior notice. Dissemination of this information without the expressed written consent of the Public Affairs Office, Tulsa District U.S. Army Corps of Engineers is strictly prohibited. These data are gathered electronically and, as presented, have NOT undergone any form of quality control. These data are NOT guaranteed to be valid or correct.